Time;durP1;ratioP1;P1;durP2;ratioP2;P2;SDS_P1;SDS_P2;PMS_P1;PMS_P2;Temp;Humidity;BMP_temperature;BMP_pressure;BME280_temperature;BME280_humidity;BME280_pressure;Samples;Min_cycle;Max_cycle;Signal;HPM_P1;HPM_P2
2024/04/14 00:03:26;;;;;;;5.00;3.90;;;;;;;14.86;59.39;99290.55;103313;1297;544719;-77
2024/04/14 00:07:04;;;;;;;5.00;3.90;;;;;;;14.88;59.51;99288.63;103197;1294;545926;-78
2024/04/14 00:10:43;;;;;;;5.40;4.20;;;;;;;14.90;59.48;99278.88;103528;1289;545158;-76
2024/04/14 00:14:20;;;;;;;4.20;3.80;;;;;;;14.93;59.62;99265.95;103671;1292;544833;-78
2024/04/14 00:17:57;;;;;;;6.00;4.10;;;;;;;14.97;59.74;99261.45;103288;1294;545304;-78
2024/04/14 00:21:35;;;;;;;6.00;4.10;;;;;;;15.00;59.71;99256.23;103539;1295;545272;-80
2024/04/14 00:25:16;;;;;;;6.10;4.90;;;;;;;15.02;59.89;99257.02;103340;1308;545755;-78
2024/04/14 00:28:50;;;;;;;8.10;6.00;;;;;;;15.02;59.94;99251.30;103538;1295;546253;-77
2024/04/14 00:32:28;;;;;;;11.00;6.40;;;;;;;15.00;60.09;99247.08;103303;1292;545026;-75
2024/04/14 00:36:06;;;;;;;7.20;5.90;;;;;;;14.97;60.07;99244.92;103374;1298;545179;-77
2024/04/14 00:39:45;;;;;;;8.70;5.60;;;;;;;14.95;60.12;99239.58;103541;1297;545378;-76
2024/04/14 00:43:23;;;;;;;6.20;4.90;;;;;;;14.93;60.25;99229.99;103480;1293;545950;-76
2024/04/14 00:46:59;;;;;;;7.50;4.90;;;;;;;14.91;60.25;99224.48;103392;1298;544759;-75
2024/04/14 00:50:43;;;;;;;6.20;5.40;;;;;;;14.88;60.40;99218.10;103316;1293;545668;-76
2024/04/14 00:54:17;;;;;;;8.40;6.50;;;;;;;14.86;60.38;99215.98;103553;1292;545051;-76
2024/04/14 00:57:54;;;;;;;8.40;5.70;;;;;;;14.81;60.60;99216.46;103314;1292;544975;-76
2024/04/14 01:01:31;;;;;;;8.30;5.40;;;;;;;14.78;60.54;99213.14;103302;1298;545506;-77
2024/04/14 01:05:08;;;;;;;7.10;5.80;;;;;;;14.74;60.72;99205.64;103430;1298;544902;-76
2024/04/14 01:08:46;;;;;;;9.60;6.20;;;;;;;14.69;60.95;99208.43;103473;1296;544834;-77
2024/04/14 01:12:25;;;;;;;6.40;5.70;;;;;;;14.64;60.88;99203.48;103478;1299;544853;-78
2024/04/14 01:16:01;;;;;;;7.50;4.80;;;;;;;14.62;61.10;99201.30;104145;1301;544747;-84
2024/04/14 01:19:38;;;;;;;6.90;3.90;;;;;;;14.62;61.21;99202.54;104032;1295;544939;-84
2024/04/14 01:23:14;;;;;;;5.00;3.60;;;;;;;14.66;61.44;99195.20;104230;1295;544704;-85
2024/04/14 01:26:57;;;;;;;4.40;3.50;;;;;;;14.72;61.38;99200.46;104331;1292;545026;-84
2024/04/14 01:30:32;;;;;;;5.20;3.40;;;;;;;14.77;61.62;99187.51;104391;1295;544782;-84
2024/04/14 01:34:14;;;;;;;6.70;4.00;;;;;;;14.81;61.51;99187.59;103928;1298;544993;-82
2024/04/14 01:37:54;;;;;;;3.80;3.50;;;;;;;14.85;61.57;99182.00;103847;1295;545472;-80
2024/04/14 01:41:55;;;;;;;4.30;3.80;;;;;;;14.88;61.68;99179.70;103497;1293;545589;-79
2024/04/14 01:45:30;;;;;;;5.30;3.70;;;;;;;14.92;61.73;99171.64;103545;1293;545062;-76
2024/04/14 01:49:08;;;;;;;6.10;3.80;;;;;;;14.91;61.76;99168.16;103332;1292;545177;-77
2024/04/14 01:52:44;;;;;;;5.10;4.20;;;;;;;14.93;61.90;99164.83;103118;1293;545412;-76
2024/04/14 01:56:24;;;;;;;5.50;3.30;;;;;;;14.93;61.93;99163.04;103393;1292;545039;-76
2024/04/14 02:00:08;;;;;;;4.70;3.90;;;;;;;14.93;61.91;99163.40;103447;1295;544970;-76
2024/04/14 02:03:45;;;;;;;4.00;3.70;;;;;;;14.93;62.04;99155.79;103121;1295;546340;-76
2024/04/14 02:07:23;;;;;;;5.10;3.40;;;;;;;14.92;62.10;99159.20;103239;1294;545257;-76
2024/04/14 02:11:01;;;;;;;4.90;3.80;;;;;;;14.90;62.30;99155.63;103350;1292;544611;-78
2024/04/14 02:14:39;;;;;;;4.70;4.20;;;;;;;14.90;62.19;99154.58;103478;1292;544731;-76
2024/04/14 02:18:16;;;;;;;5.10;3.50;;;;;;;14.90;62.25;99151.39;102968;1294;545899;-75
2024/04/14 02:21:52;;;;;;;5.30;3.60;;;;;;;14.90;62.43;99142.55;103183;1293;545704;-75
2024/04/14 02:25:35;;;;;;;4.20;3.50;;;;;;;14.90;62.40;99133.66;103353;1292;545676;-76
2024/04/14 02:29:12;;;;;;;5.30;4.00;;;;;;;14.91;62.34;99124.96;103255;1293;544918;-77
2024/04/14 02:33:04;;;;;;;3.50;3.10;;;;;;;14.92;62.39;99121.88;104349;1293;546332;-82
2024/04/14 02:36:28;;;;;;;4.60;3.80;;;;;;;14.91;62.45;99112.52;104062;1293;545082;-83
2024/04/14 02:40:07;;;;;;;4.10;3.70;;;;;;;14.91;62.43;99109.69;103911;1294;544985;-82
2024/04/14 02:43:44;;;;;;;5.30;3.10;;;;;;;14.89;62.41;99110.36;104149;1296;545599;-82
2024/04/14 02:47:18;;;;;;;4.50;3.40;;;;;;;14.86;62.49;99109.73;103584;1295;544776;-82
2024/04/14 02:51:00;;;;;;;4.30;3.10;;;;;;;14.84;62.51;99110.20;103601;1295;545294;-82
2024/04/14 02:54:38;;;;;;;4.60;3.50;;;;;;;14.81;62.46;99106.52;103657;1295;545682;-82
2024/04/14 02:58:17;;;;;;;4.70;3.30;;;;;;;14.80;62.50;99098.64;104361;1292;545417;-83
2024/04/14 03:02:14;;;;;;;4.60;3.60;;;;;;;14.76;62.50;99092.20;104051;1295;550520;-83
2024/04/14 03:05:31;;;;;;;4.60;3.80;;;;;;;14.71;62.60;99087.60;104143;1295;544744;-79
2024/04/14 03:09:08;;;;;;;4.10;3.20;;;;;;;14.68;62.57;99087.62;103330;1295;545466;-80
2024/04/14 03:12:46;;;;;;;5.70;3.50;;;;;;;14.63;62.73;99080.05;103492;1292;545842;-80
2024/04/14 03:16:25;;;;;;;4.00;3.30;;;;;;;14.58;62.78;99081.92;103433;1295;546734;-75
2024/04/14 03:20:02;;;;;;;5.20;3.30;;;;;;;14.54;62.89;99076.73;102952;1298;544832;-75
2024/04/14 03:23:39;;;;;;;6.30;3.30;;;;;;;14.50;62.90;99074.55;103551;1296;545186;-76
2024/04/14 03:27:17;;;;;;;5.50;3.70;;;;;;;14.47;62.98;99066.95;103314;1292;544846;-74
2024/04/14 03:31:01;;;;;;;5.40;3.80;;;;;;;14.44;62.87;99069.82;103258;1295;544959;-77
2024/04/14 03:34:35;;;;;;;6.00;3.60;;;;;;;14.42;62.91;99068.39;103557;1292;544823;-78
2024/04/14 03:38:09;;;;;;;4.10;3.50;;;;;;;14.39;63.06;99066.10;103281;1295;545149;-76
2024/04/14 03:41:51;;;;;;;4.50;3.00;;;;;;;14.39;63.01;99066.85;103053;1297;545685;-76
2024/04/14 03:45:32;;;;;;;2.50;2.30;;;;;;;14.41;63.17;99062.98;103517;1293;544986;-75
2024/04/14 03:49:10;;;;;;;5.50;2.40;;;;;;;14.47;63.07;99057.75;103001;1298;544812;-75
2024/04/14 03:52:58;;;;;;;4.00;2.00;;;;;;;14.60;63.08;99060.61;103147;1292;549034;-76
2024/04/14 03:56:21;;;;;;;3.70;2.10;;;;;;;14.76;63.03;99062.11;103076;1296;545151;-75
2024/04/14 04:00:00;;;;;;;3.60;2.00;;;;;;;14.95;63.02;99058.96;103376;1292;544795;-76
2024/04/14 04:03:58;;;;;;;3.10;2.00;;;;;;;15.13;62.87;99054.26;104094;1293;553210;-76
2024/04/14 04:07:15;;;;;;;4.40;2.10;;;;;;;15.28;62.76;99053.17;103853;1292;545617;-75
2024/04/14 04:10:58;;;;;;;5.50;2.30;;;;;;;15.43;62.59;99051.01;103061;1298;545400;-77
2024/04/14 04:25:12;;;;;;;2.60;1.80;;;;;;;16.00;62.30;99051.81;105319;1288;557045;-82
2024/04/14 04:28:00;;;;;;;3.60;2.00;;;;;;;16.39;62.05;99047.58;104753;1295;544731;-80
2024/04/14 04:31:44;;;;;;;2.30;1.90;;;;;;;16.55;61.79;99051.83;104003;1295;545431;-82
2024/04/14 04:35:18;;;;;;;3.40;2.00;;;;;;;16.68;61.66;99058.80;104613;1292;545922;-81
2024/04/14 04:49:42;;;;;;;3.00;1.70;;;;;;;17.18;61.26;99054.88;106464;1285;553928;-91
2024/04/14 04:52:37;;;;;;;3.80;1.90;;;;;;;17.53;61.09;99060.55;104792;1295;544858;-83
2024/04/14 04:56:29;;;;;;;2.50;1.70;;;;;;;17.68;60.95;99057.04;104298;1298;550477;-80
2024/04/14 05:10:30;;;;;;;3.30;1.60;;;;;;;18.16;60.47;99057.54;104569;1285;558561;-79
2024/04/14 05:41:03;;;;;;;2.70;1.80;;;;;;;20.24;59.68;99060.98;103361;1293;546545;-76
2024/04/14 06:08:57;;;;;;;2.10;1.80;;;;;;;21.74;58.26;99067.05;106184;1288;553871;-86
2024/04/14 06:11:51;;;;;;;3.00;1.80;;;;;;;22.10;57.65;99069.17;105011;1293;545050;-87
2024/04/14 06:15:27;;;;;;;3.40;1.80;;;;;;;22.23;57.54;99072.33;105177;1292;544933;-85
2024/04/14 06:19:05;;;;;;;2.30;1.40;;;;;;;22.38;57.06;99067.70;104953;1295;545124;-86
2024/04/14 06:22:41;;;;;;;3.20;1.60;;;;;;;22.57;56.99;99064.82;104727;1295;545397;-81
2024/04/14 06:26:18;;;;;;;3.50;1.60;;;;;;;22.70;56.68;99062.35;104606;1292;544972;-84
2024/04/14 06:29:54;;;;;;;3.50;1.70;;;;;;;22.86;56.63;99061.58;104829;1296;545003;-83
2024/04/14 06:33:35;;;;;;;4.90;2.10;;;;;;;22.91;55.95;99065.05;104891;1295;544877;-83
2024/04/14 06:37:16;;;;;;;2.50;1.70;;;;;;;22.90;56.15;99067.13;104313;1295;545486;-82
2024/04/14 06:41:00;;;;;;;2.80;1.60;;;;;;;22.93;56.00;99069.48;104892;1292;547927;-87
2024/04/14 06:44:34;;;;;;;4.70;1.90;;;;;;;22.97;55.91;99069.57;104869;1294;544893;-84
2024/04/14 06:48:17;;;;;;;2.80;1.60;;;;;;;23.06;55.65;99072.60;104813;1293;545107;-84
2024/04/14 06:52:03;;;;;;;2.50;1.80;;;;;;;23.23;55.52;99073.09;104669;1293;544940;-82
2024/04/14 06:55:30;;;;;;;3.80;2.00;;;;;;;23.35;55.24;99074.52;104307;1298;545134;-83
2024/04/14 06:59:14;;;;;;;3.30;1.70;;;;;;;23.35;54.96;99074.92;104998;1292;544887;-84
2024/04/14 07:02:56;;;;;;;5.90;2.00;;;;;;;23.41;54.72;99075.34;105190;1292;544981;-84
2024/04/14 07:06:34;;;;;;;3.10;1.50;;;;;;;23.52;54.63;99075.73;105397;1294;545342;-81
2024/04/14 07:10:09;;;;;;;7.00;1.90;;;;;;;23.69;54.39;99076.11;105308;1298;545978;-84
2024/04/14 07:13:51;;;;;;;1.90;1.40;;;;;;;23.84;54.52;99080.20;104446;1293;545134;-79
2024/04/14 07:17:30;;;;;;;7.90;2.00;;;;;;;23.96;54.12;99074.14;104213;1296;544761;-85
2024/04/14 07:21:05;;;;;;;5.80;1.80;;;;;;;23.96;53.81;99074.88;104967;1293;546084;-91
2024/04/14 07:24:49;;;;;;;5.00;1.80;;;;;;;24.01;53.64;99066.81;105137;1294;545355;-88
2024/04/14 07:28:25;;;;;;;5.70;2.10;;;;;;;23.92;53.53;99075.41;106176;1286;544880;-87
2024/04/14 07:42:48;;;;;;;5.20;1.70;;;;;;;24.14;53.32;99070.77;108962;1267;557127;-87
2024/04/14 07:45:39;;;;;;;4.30;1.90;;;;;;;24.24;52.94;99070.61;105639;1292;544825;-88
2024/04/14 07:49:17;;;;;;;8.20;2.00;;;;;;;24.13;52.69;99076.26;105319;1294;545105;-88
2024/04/14 07:53:07;;;;;;;6.00;1.80;;;;;;;23.97;52.70;99080.71;105345;1294;545071;-89
2024/04/14 07:56:34;;;;;;;3.40;2.00;;;;;;;23.93;52.54;99071.90;104921;1295;545292;-90
2024/04/14 08:00:10;;;;;;;4.80;2.00;;;;;;;23.96;52.31;99073.46;105406;1291;544835;-90
2024/04/14 08:03:57;;;;;;;6.60;2.10;;;;;;;23.94;52.16;99072.78;105049;1292;545569;-89
2024/04/14 08:07:25;;;;;;;3.30;1.70;;;;;;;24.06;51.96;99077.39;104877;1295;545828;-91
2024/04/14 08:11:15;;;;;;;5.90;1.90;;;;;;;24.28;51.84;99080.91;105629;1289;545978;-90
2024/04/14 08:14:39;;;;;;;2.40;1.80;;;;;;;24.38;51.69;99081.23;105313;1294;545923;-89
2024/04/14 08:18:23;;;;;;;5.60;1.90;;;;;;;24.56;51.62;99071.34;105105;1292;544814;-90
2024/04/14 08:21:57;;;;;;;3.60;2.00;;;;;;;24.79;51.33;99072.27;105428;1295;545465;-90
2024/04/14 08:25:44;;;;;;;2.30;2.00;;;;;;;24.95;51.07;99067.28;105251;1292;545934;-88
2024/04/14 08:29:23;;;;;;;2.10;1.70;;;;;;;25.04;50.86;99065.50;105643;1291;544847;-90
2024/04/14 08:32:55;;;;;;;4.20;1.70;;;;;;;25.15;50.64;99064.59;104336;1295;545444;-82
2024/04/14 08:36:54;;;;;;;2.50;1.80;;;;;;;25.30;50.46;99063.98;104210;1294;549511;-84
2024/04/14 08:40:11;;;;;;;14.70;2.00;;;;;;;25.33;49.98;99068.63;103884;1296;544932;-84
2024/04/14 08:43:51;;;;;;;3.80;1.70;;;;;;;25.24;49.63;99070.93;104018;1295;544882;-81
2024/04/14 08:47:28;;;;;;;4.70;2.00;;;;;;;25.15;49.60;99071.48;104409;1292;544929;-90
2024/04/14 08:51:05;;;;;;;8.20;2.50;;;;;;;25.08;49.22;99074.88;105555;1294;544763;-92
2024/04/14 08:54:44;;;;;;;4.10;1.90;;;;;;;25.03;48.85;99072.33;105259;1292;545003;-91
2024/04/14 08:58:34;;;;;;;10.30;1.90;;;;;;;24.94;48.67;99073.96;105059;1295;545647;-90
2024/04/14 09:01:57;;;;;;;8.00;2.00;;;;;;;24.95;48.57;99072.06;104711;1298;545020;-83
2024/04/14 09:05:40;;;;;;;5.60;2.20;;;;;;;24.96;48.41;99070.22;104268;1291;544792;-83
2024/04/14 09:09:26;;;;;;;5.60;1.80;;;;;;;25.07;47.76;99061.21;104142;1295;548290;-85
2024/04/14 09:12:58;;;;;;;9.20;1.80;;;;;;;24.90;47.79;99073.58;103949;1295;544836;-85
2024/04/14 09:16:46;;;;;;;20.60;2.50;;;;;;;24.85;47.19;99074.83;104831;1286;545635;-89
2024/04/14 09:20:20;;;;;;;10.20;1.90;;;;;;;24.87;47.26;99075.34;105068;1293;544781;-90
2024/04/14 09:23:57;;;;;;;9.70;1.80;;;;;;;25.13;47.10;99075.09;105227;1294;545113;-89
2024/04/14 09:27:35;;;;;;;4.00;1.80;;;;;;;25.22;46.73;99077.90;105497;1295;545101;-90
2024/04/14 09:31:10;;;;;;;16.80;1.80;;;;;;;25.26;46.40;99077.41;105322;1292;544986;-88
2024/04/14 09:35:00;;;;;;;16.70;2.10;;;;;;;24.96;46.19;99080.95;105170;1294;545208;-90
2024/04/14 09:38:31;;;;;;;6.30;1.70;;;;;;;24.97;46.33;99086.75;106247;1286;545104;-91
2024/04/14 09:42:15;;;;;;;4.20;1.80;;;;;;;25.01;46.29;99092.95;105102;1295;547943;-89
2024/04/14 09:45:53;;;;;;;9.50;1.90;;;;;;;24.97;45.87;99090.59;105055;1295;544977;-87
2024/04/14 09:49:29;;;;;;;7.30;1.70;;;;;;;24.73;45.87;99088.63;104461;1292;545398;-85
2024/04/14 09:53:31;;;;;;;7.20;1.90;;;;;;;24.59;46.20;99098.85;104960;1290;545421;-83
2024/04/14 09:57:03;;;;;;;4.70;2.30;;;;;;;24.87;46.17;99100.16;103991;1295;546417;-85
2024/04/14 10:00:25;;;;;;;1.90;1.70;;;;;;;25.04;45.61;99095.07;105251;1290;545923;-85
2024/04/14 10:04:12;;;;;;;6.80;1.80;;;;;;;25.11;45.82;99093.34;105232;1294;545438;-89
2024/04/14 10:07:44;;;;;;;4.80;1.80;;;;;;;25.25;45.51;99092.13;105712;1286;544893;-89
2024/04/14 10:11:26;;;;;;;2.80;1.50;;;;;;;25.12;45.22;99089.47;105088;1293;545006;-88
2024/04/14 10:15:06;;;;;;;5.80;1.80;;;;;;;25.04;44.99;99086.54;105125;1293;545023;-87
2024/04/14 10:18:44;;;;;;;3.00;1.40;;;;;;;24.85;44.96;99085.08;105197;1295;545197;-90
2024/04/14 10:22:50;;;;;;;8.90;1.90;;;;;;;24.87;45.04;99089.77;105736;1295;547999;-85
2024/04/14 10:25:57;;;;;;;1.80;1.50;;;;;;;25.00;44.98;99084.89;105797;1295;545062;-90
2024/04/14 10:29:35;;;;;;;5.30;1.70;;;;;;;25.20;44.78;99080.92;105876;1295;544796;-92
2024/04/14 10:33:33;;;;;;;3.20;1.60;;;;;;;25.58;44.83;99082.86;105484;1292;550340;-88
2024/04/14 10:36:57;;;;;;;4.30;1.40;;;;;;;25.65;44.36;99088.34;104641;1294;544878;-87
2024/04/14 10:40:26;;;;;;;3.90;1.50;;;;;;;25.13;44.15;99092.54;104678;1293;545225;-90
2024/04/14 10:44:21;;;;;;;2.50;1.50;;;;;;;24.70;44.25;99096.66;104805;1293;545036;-91
2024/04/14 10:48:08;;;;;;;4.10;1.70;;;;;;;24.42;44.07;99088.37;105397;1293;545743;-92
2024/04/14 10:51:46;;;;;;;8.40;2.00;;;;;;;24.37;44.10;99087.79;105714;1291;544992;-91
2024/04/14 10:55:25;;;;;;;6.90;2.20;;;;;;;24.28;44.03;99091.36;105406;1295;545246;-90
2024/04/14 10:58:57;;;;;;;1.80;1.60;;;;;;;24.08;43.87;99099.57;105884;1292;545216;-91
2024/04/14 11:02:44;;;;;;;4.70;1.50;;;;;;;24.00;44.32;99096.15;105571;1295;544766;-91
2024/04/14 11:06:10;;;;;;;3.00;2.10;;;;;;;24.19;44.25;99092.64;106691;1295;545120;-86
2024/04/14 11:10:03;;;;;;;5.30;2.10;;;;;;;24.42;44.08;99087.55;106649;1289;545401;-89
2024/04/14 11:13:37;;;;;;;7.10;2.20;;;;;;;24.54;43.99;99084.83;105628;1295;545154;-89
2024/04/14 11:27:46;;;;;;;2.60;1.90;;;;;;;25.14;43.63;99084.25;106723;1288;554245;-92
2024/04/14 11:30:37;;;;;;;3.90;1.80;;;;;;;25.58;43.73;99089.99;106019;1297;544822;-90
2024/04/14 11:34:34;;;;;;;3.80;2.30;;;;;;;25.83;43.22;99076.63;105822;1296;549264;-89
2024/04/14 11:37:59;;;;;;;4.50;2.20;;;;;;;25.73;43.24;99073.88;105859;1299;544712;-89
2024/04/14 11:41:33;;;;;;;3.40;1.70;;;;;;;25.42;42.82;99071.56;105671;1294;544983;-92
2024/04/14 11:45:21;;;;;;;6.70;2.40;;;;;;;25.19;42.90;99064.56;105460;1292;544984;-89
2024/04/14 11:59:23;;;;;;;3.10;2.20;;;;;;;24.97;42.75;99057.99;106744;1288;554884;-89
2024/04/14 12:02:15;;;;;;;4.10;1.80;;;;;;;24.69;42.93;99079.94;105625;1294;544632;-91
2024/04/14 12:05:52;;;;;;;7.40;1.90;;;;;;;24.62;43.05;99082.16;105223;1295;545077;-91
2024/04/14 12:09:31;;;;;;;3.20;1.80;;;;;;;24.61;42.75;99074.04;105267;1292;546559;-90
2024/04/14 12:23:39;;;;;;;5.70;2.30;;;;;;;24.46;42.69;99078.33;105798;1288;554335;-89
2024/04/14 13:04:37;;;;;;;3.80;2.10;;;;;;;23.83;42.21;99064.83;105648;1289;553770;-83
2024/04/14 13:07:31;;;;;;;4.70;2.10;;;;;;;23.48;42.29;99070.11;104981;1295;549311;-84
2024/04/14 13:11:06;;;;;;;8.60;2.10;;;;;;;23.25;42.57;99066.23;104766;1292;545799;-89
2024/04/14 13:14:45;;;;;;;5.10;2.10;;;;;;;23.15;42.61;99060.90;104341;1293;545085;-82
2024/04/14 13:18:19;;;;;;;2.50;1.90;;;;;;;23.11;42.80;99071.02;103887;1295;544778;-84
2024/04/14 13:22:00;;;;;;;5.10;2.70;;;;;;;22.96;42.85;99068.79;104541;1295;546069;-86
2024/04/14 13:25:38;;;;;;;5.80;2.30;;;;;;;22.86;42.51;99068.95;104095;1295;544871;-86
2024/04/14 13:29:16;;;;;;;4.20;1.80;;;;;;;22.82;42.72;99062.35;103749;1292;545664;-84
2024/04/14 13:32:57;;;;;;;4.60;1.90;;;;;;;22.72;42.78;99066.62;103935;1292;546121;-83
2024/04/14 13:36:33;;;;;;;7.40;1.90;;;;;;;22.73;42.60;99059.16;103485;1298;545428;-78
2024/04/14 13:40:07;;;;;;;4.60;1.90;;;;;;;22.62;42.80;99063.27;103436;1292;545251;-78
2024/04/14 13:43:50;;;;;;;4.70;1.80;;;;;;;22.52;42.53;99064.10;103528;1292;544810;-77
2024/04/14 13:47:31;;;;;;;4.20;1.40;;;;;;;22.30;42.28;99066.41;103393;1298;545516;-75
2024/04/14 13:51:08;;;;;;;3.20;1.80;;;;;;;22.12;42.39;99067.20;103819;1288;545458;-79
2024/04/14 13:55:01;;;;;;;4.90;2.20;;;;;;;22.13;42.19;99055.77;103222;1298;549292;-78
2024/04/14 13:58:34;;;;;;;11.30;1.70;;;;;;;22.15;42.25;99048.95;103509;1299;545604;-76
2024/04/14 14:02:19;;;;;;;2.70;1.70;;;;;;;21.90;42.00;99055.06;103567;1293;545321;-77
2024/04/14 14:05:54;;;;;;;4.90;1.80;;;;;;;22.03;42.32;99059.65;103294;1295;544806;-78
2024/04/14 14:09:32;;;;;;;4.30;1.70;;;;;;;22.36;42.13;99062.94;103436;1295;545659;-77
2024/04/14 14:13:12;;;;;;;6.00;1.40;;;;;;;22.44;42.03;99048.70;103425;1298;545052;-78
2024/04/14 14:16:52;;;;;;;3.50;1.30;;;;;;;22.52;41.97;99039.93;103382;1306;545543;-78
2024/04/14 14:20:52;;;;;;;5.20;1.90;;;;;;;22.50;41.85;99041.03;103291;1293;553527;-78
2024/04/14 14:24:13;;;;;;;4.40;1.50;;;;;;;22.44;41.91;99055.83;103203;1293;544851;-78
2024/04/14 14:27:50;;;;;;;4.10;1.70;;;;;;;22.32;41.82;99049.66;103419;1301;544934;-76
2024/04/14 14:31:29;;;;;;;3.70;1.60;;;;;;;21.91;41.95;99060.38;103821;1289;544745;-79
2024/04/14 14:39:03;;;;;;;6.60;1.40;;;;;;;21.56;42.56;99065.11;103453;1295;546296;-79
2024/04/14 14:42:47;;;;;;;6.00;2.00;;;;;;;21.73;42.42;99058.41;103520;1299;545211;-79
2024/04/14 14:46:23;;;;;;;5.50;1.90;;;;;;;21.84;42.51;99059.98;103374;1294;545304;-78
2024/04/14 14:49:58;;;;;;;3.20;1.50;;;;;;;21.86;42.53;99065.70;104609;1293;545923;-78
2024/04/14 14:53:41;;;;;;;4.30;1.70;;;;;;;21.88;42.69;99063.36;104223;1295;544739;-81
2024/04/14 14:57:18;;;;;;;4.10;1.60;;;;;;;21.99;42.61;99064.35;103914;1292;545637;-78
2024/04/14 15:01:00;;;;;;;3.60;1.70;;;;;;;22.09;42.83;99068.73;103635;1302;545756;-80
2024/04/14 15:04:33;;;;;;;4.60;1.50;;;;;;;22.21;42.46;99075.33;103545;1295;545027;-80
2024/04/14 15:08:11;;;;;;;4.10;1.80;;;;;;;22.23;42.49;99069.27;103458;1295;545106;-80
2024/04/14 15:11:53;;;;;;;5.10;1.50;;;;;;;22.21;42.50;99068.95;103611;1296;545117;-81
2024/04/14 15:15:33;;;;;;;5.10;1.50;;;;;;;22.23;42.48;99055.59;103652;1294;544951;-80
2024/04/14 15:19:09;;;;;;;7.30;1.50;;;;;;;22.39;42.66;99061.39;103717;1298;545014;-83
2024/04/14 15:22:45;;;;;;;2.80;1.80;;;;;;;22.39;42.30;99055.95;103749;1295;545027;-83
2024/04/14 15:26:28;;;;;;;4.70;2.60;;;;;;;22.44;42.43;99060.46;103910;1298;545102;-80
2024/04/14 15:30:09;;;;;;;4.00;1.80;;;;;;;22.57;42.54;99052.52;103564;1295;546126;-83
2024/04/14 15:33:43;;;;;;;13.40;1.90;;;;;;;22.57;42.21;99054.02;104368;1289;544723;-77
2024/04/14 15:37:19;;;;;;;5.40;1.30;;;;;;;22.49;42.21;99052.23;103486;1293;545427;-80
2024/04/14 15:41:01;;;;;;;3.60;1.50;;;;;;;22.44;42.17;99057.44;103426;1296;544802;-80
2024/04/14 15:44:37;;;;;;;6.50;2.10;;;;;;;22.37;42.23;99059.44;103382;1294;545218;-80
2024/04/14 15:48:18;;;;;;;3.40;1.30;;;;;;;22.31;42.13;99053.95;103826;1295;545506;-80
2024/04/14 15:52:21;;;;;;;2.10;1.20;;;;;;;22.38;42.52;99047.86;103345;1298;552050;-78
2024/04/14 15:55:39;;;;;;;2.30;1.30;;;;;;;22.27;42.09;99047.17;103374;1294;544904;-77
2024/04/14 15:59:19;;;;;;;4.10;1.60;;;;;;;22.08;42.16;99056.68;103422;1295;545272;-78
2024/04/14 16:03:01;;;;;;;3.10;1.40;;;;;;;22.23;42.19;99059.55;103806;1292;545117;-78
2024/04/14 16:06:38;;;;;;;4.60;2.10;;;;;;;22.29;41.93;99051.64;103682;1293;544994;-82
2024/04/14 16:10:16;;;;;;;6.10;1.60;;;;;;;22.26;41.82;99046.05;103433;1307;546362;-82
2024/04/14 16:13:52;;;;;;;3.50;1.30;;;;;;;22.11;41.95;99042.40;103832;1292;545575;-83
2024/04/14 16:17:34;;;;;;;5.30;1.60;;;;;;;22.02;41.85;99048.34;103759;1295;545452;-84
2024/04/14 16:21:16;;;;;;;3.80;1.80;;;;;;;21.77;41.81;99038.45;103545;1295;548686;-84
2024/04/14 16:24:52;;;;;;;5.00;1.60;;;;;;;21.69;41.80;99041.04;103935;1292;545349;-83
2024/04/14 16:28:30;;;;;;;5.60;1.70;;;;;;;21.73;41.73;99039.62;103910;1295;545945;-83
2024/04/14 16:32:05;;;;;;;6.30;1.50;;;;;;;21.52;41.56;99036.55;104141;1293;545097;-83
2024/04/14 16:35:41;;;;;;;6.70;1.50;;;;;;;21.34;41.70;99034.48;104019;1296;544806;-83
2024/04/14 16:39:26;;;;;;;2.70;1.20;;;;;;;21.28;41.81;99031.05;104666;1290;545248;-82
2024/04/14 16:43:04;;;;;;;4.60;1.70;;;;;;;21.28;41.62;99028.52;103977;1295;546225;-78
2024/04/14 16:46:38;;;;;;;4.70;1.60;;;;;;;21.14;41.87;99034.23;104389;1295;545760;-84
2024/04/14 17:01:09;;;;;;;4.90;1.60;;;;;;;21.17;41.53;99032.96;107767;1261;554978;-83
2024/04/14 17:03:57;;;;;;;4.20;1.90;;;;;;;20.92;42.01;99042.14;104903;1294;544855;-85
2024/04/14 18:40:57;;;;;;;8.70;2.10;;;;;;;17.38;44.35;99106.23;105822;1287;558791;-88
2024/04/14 18:43:49;;;;;;;7.30;2.50;;;;;;;17.09;44.66;99115.30;104921;1295;545500;-81
2024/04/14 18:47:28;;;;;;;12.50;5.80;;;;;;;16.96;45.68;99110.83;103359;1296;545510;-78
2024/04/14 18:51:03;;;;;;;12.80;5.60;;;;;;;17.10;45.87;99121.31;103723;1295;545123;-82
2024/04/14 18:54:41;;;;;;;7.30;3.40;;;;;;;17.28;46.76;99123.23;103473;1295;544962;-82
2024/04/14 18:58:16;;;;;;;8.20;3.40;;;;;;;17.47;46.57;99124.36;103422;1294;545258;-81
2024/04/14 19:01:58;;;;;;;8.50;2.90;;;;;;;17.57;46.49;99121.59;103414;1296;544700;-80
2024/04/14 19:05:40;;;;;;;6.10;2.40;;;;;;;17.64;46.81;99124.72;103648;1308;544964;-76
2024/04/14 19:09:18;;;;;;;4.90;2.30;;;;;;;17.68;46.60;99122.09;103624;1296;545831;-76
2024/04/14 19:12:57;;;;;;;3.40;1.70;;;;;;;17.70;46.32;99123.39;103261;1292;545202;-76
2024/04/14 19:16:33;;;;;;;4.80;2.10;;;;;;;17.47;46.28;99113.38;103250;1293;544753;-77
2024/04/14 19:20:10;;;;;;;5.90;2.10;;;;;;;17.33;46.10;99105.89;103325;1295;545292;-77
2024/04/14 19:23:56;;;;;;;7.90;2.80;;;;;;;17.31;46.72;99121.34;103184;1293;544868;-76
2024/04/14 19:27:26;;;;;;;4.90;2.40;;;;;;;17.40;46.26;99129.23;103345;1295;545028;-78
2024/04/14 19:31:06;;;;;;;3.60;1.80;;;;;;;17.28;46.08;99127.27;103409;1293;544919;-77
2024/04/14 19:34:42;;;;;;;3.80;2.00;;;;;;;17.08;46.03;99127.48;103331;1294;545473;-75
2024/04/14 19:38:20;;;;;;;5.90;1.90;;;;;;;16.95;46.36;99127.25;103174;1298;544819;-84
2024/04/14 19:41:59;;;;;;;2.50;1.70;;;;;;;16.63;45.70;99136.04;103673;1294;545867;-82
2024/04/14 19:45:36;;;;;;;4.40;1.90;;;;;;;16.22;45.78;99125.20;103718;1295;545060;-79
2024/04/14 19:49:12;;;;;;;6.20;1.80;;;;;;;15.85;46.02;99122.88;103619;1289;544669;-81
2024/04/14 19:52:52;;;;;;;5.10;1.80;;;;;;;15.63;46.24;99118.08;104110;1293;545214;-83
2024/04/14 19:56:28;;;;;;;7.30;2.10;;;;;;;15.44;46.38;99121.44;104307;1289;544912;-82
2024/04/14 20:00:06;;;;;;;3.70;1.80;;;;;;;15.23;46.32;99112.19;103766;1295;544849;-84
2024/04/14 20:03:43;;;;;;;4.30;1.70;;;;;;;15.07;46.63;99114.08;104297;1286;544604;-81
2024/04/14 20:07:26;;;;;;;4.70;2.00;;;;;;;14.94;46.78;99110.76;103646;1292;546306;-82
2024/04/14 20:10:58;;;;;;;4.70;1.80;;;;;;;14.82;46.83;99126.09;104396;1299;544700;-86
2024/04/14 20:14:34;;;;;;;4.40;1.60;;;;;;;14.71;47.04;99117.66;104443;1293;545227;-86
2024/04/14 20:18:16;;;;;;;3.40;2.00;;;;;;;14.60;47.01;99114.55;103945;1295;544707;-81
2024/04/14 20:21:54;;;;;;;4.50;1.60;;;;;;;14.49;47.09;99115.33;103457;1294;544770;-81
2024/04/14 20:25:34;;;;;;;2.50;1.40;;;;;;;14.43;47.22;99117.65;103639;1295;544947;-81
2024/04/14 20:29:10;;;;;;;2.50;1.30;;;;;;;14.36;47.49;99121.02;103528;1292;545518;-80
2024/04/14 20:32:47;;;;;;;3.30;1.50;;;;;;;14.30;47.54;99119.98;103578;1295;544983;-81
2024/04/14 20:36:25;;;;;;;4.10;1.70;;;;;;;14.21;47.65;99115.98;103547;1295;544749;-78
2024/04/14 20:40:01;;;;;;;4.90;1.60;;;;;;;14.16;47.79;99117.94;103620;1298;544799;-78
2024/04/14 20:43:44;;;;;;;3.00;1.50;;;;;;;14.11;47.87;99124.79;103458;1295;544825;-80
2024/04/14 20:47:20;;;;;;;2.80;1.50;;;;;;;14.05;47.92;99123.23;103410;1292;545083;-78
2024/04/14 20:51:01;;;;;;;3.20;1.30;;;;;;;13.97;47.97;99123.05;103215;1295;544919;-79
2024/04/14 20:54:36;;;;;;;2.30;1.50;;;;;;;13.90;47.94;99117.75;103678;1292;545438;-82
2024/04/14 20:58:16;;;;;;;2.90;1.30;;;;;;;13.86;48.19;99119.23;103700;1299;544727;-83
2024/04/14 21:01:51;;;;;;;4.00;1.70;;;;;;;13.84;48.04;99126.09;103455;1299;544857;-82
2024/04/14 21:05:32;;;;;;;5.40;1.60;;;;;;;13.88;48.18;99122.32;104253;1301;544758;-79
2024/04/14 21:09:07;;;;;;;5.00;2.10;;;;;;;13.85;48.46;99125.88;103004;1295;546407;-78